Kakariki — ZMKA — position and weather

sailwx.info

Track history (hours):
 
Tides and Currents Weather Stations Pressure Air Temp Water Temp Dewpoint Dewpoint Depression Visibility Wind Speed Wind Dir Waves Ship Positions

Kakariki

Last reported at 2016-Feb-06 09:00 UTC. Time now 2016-Feb-07 13:12 UTC.
Position S 46°12' E 170°18'.

Length 183 m; beam 32 m; draft 11 m.

Type: Ship (hazmat cat A). MMSI: 512000050.

Wind from 050 at 5 knots

Barometer 1018.5 mb
Air temperature 12.0 ° C
Visibility: greater than 27.0 NM
Dewpoint 10.9 ° C

Date/timePositionNaut miles runAvg speedWind from/ knotsBaromVisibWave heightAir tempDewpointWater temp
2016-Feb-06 09:00S 46°12' E 170°18'   050 / 51018.527.0 12.010.9
2016-Feb-03 09:00S 38°18' E 178°30'18710.1 030 / 151021.327.0 19.517.6
2016-Feb-02 14:23S 36°23' E 175°25'1212.1
2016-Feb-02 13:24S 36°19' E 175°11'1012.1
2016-Feb-02 12:33S 36°15' E 174°59'1212.2
2016-Feb-02 11:33S 36°07' E 174°48'1 0.0
2016-Jan-31 16:30S 36°07' E 174°47'1212.4
2016-Jan-31 15:32S 36°14' E 174°58'1212.3
2016-Jan-31 14:33S 36°19' E 175°12'2912.3
2016-Jan-31 12:10S 36°29' E 175°47'  
2016-Jan-28 04:34S 36°23' E 175°25'1010.0
2016-Jan-28 03:33S 36°20' E 175°13'10 9.8
2016-Jan-28 02:34S 36°16' E 175°02'12 9.5
2016-Jan-28 01:15S 36°09' E 174°50'8 9.5
2016-Jan-28 00:24S 36°03' E 174°42'  
Track history (hours):
 
Tides and Currents Weather Stations Pressure Air Temp Water Temp Dewpoint Dewpoint Depression Visibility Wind Speed Wind Dir Waves Ship Positions

Kakariki

Last reported at 2016-Feb-06 09:00 UTC. Time now 2016-Feb-07 13:12 UTC.
Position S 46°12' E 170°18'.

Length 183 m; beam 32 m; draft 11 m.

Type: Ship (hazmat cat A). MMSI: 512000050.

Wind from 050 at 5 knots

Barometer 1018.5 mb
Air temperature 12.0 ° C
Visibility: greater than 27.0 NM
Dewpoint 10.9 ° C

Date/timePositionNaut miles runAvg speedWind from/ knotsBaromVisibWave heightAir tempDewpointWater temp
2016-Feb-06 09:00S 46°12' E 170°18'   050 / 51018.527.0 12.010.9
2016-Feb-03 09:00S 38°18' E 178°30'18710.1 030 / 151021.327.0 19.517.6
2016-Feb-02 14:23S 36°23' E 175°25'1212.1
2016-Feb-02 13:24S 36°19' E 175°11'1012.1
2016-Feb-02 12:33S 36°15' E 174°59'1212.2
2016-Feb-02 11:33S 36°07' E 174°48'1 0.0
2016-Jan-31 16:30S 36°07' E 174°47'1212.4
2016-Jan-31 15:32S 36°14' E 174°58'1212.3
2016-Jan-31 14:33S 36°19' E 175°12'2912.3
2016-Jan-31 12:10S 36°29' E 175°47'  
2016-Jan-28 04:34S 36°23' E 175°25'1010.0
2016-Jan-28 03:33S 36°20' E 175°13'10 9.8
2016-Jan-28 02:34S 36°16' E 175°02'12 9.5
2016-Jan-28 01:15S 36°09' E 174°50'8 9.5
2016-Jan-28 00:24S 36°03' E 174°42'  

Dump ship's entire track history